Time;durP1;ratioP1;P1;durP2;ratioP2;P2;SDS_P1;SDS_P2;PMS_P1;PMS_P2;Temp;Humidity;BMP_temperature;BMP_pressure;BME280_temperature;BME280_humidity;BME280_pressure;Samples;Min_cycle;Max_cycle;Signal;HPM_P1;HPM_P2
2021/08/20 00:00:08;;;;;;;0.93;0.70;;;15.50;87.60;;;;;;2049137;28;20179;-67
2021/08/20 00:01:09;;;;;;;0.90;0.90;;;15.50;87.10;;;;;;2048412;29;20219;-66
2021/08/20 00:02:10;;;;;;;1.77;1.20;;;15.50;87.10;;;;;;2048465;29;20439;-67
2021/08/20 00:03:10;;;;;;;1.17;0.87;;;15.50;87.40;;;;;;2049076;28;20458;-67
2021/08/20 00:04:11;;;;;;;1.30;1.20;;;15.50;87.80;;;;;;2048529;29;20183;-67
2021/08/20 00:05:12;;;;;;;2.07;1.17;;;15.50;87.90;;;;;;2048458;29;20176;-66
2021/08/20 00:06:13;;;;;;;1.27;1.03;;;15.40;88.00;;;;;;2049054;29;20219;-66
2021/08/20 00:07:13;;;;;;;0.80;0.80;;;15.40;87.90;;;;;;2049004;29;20211;-67
2021/08/20 00:08:14;;;;;;;0.90;0.90;;;15.50;87.90;;;;;;2048591;29;20184;-68
2021/08/20 00:09:15;;;;;;;1.17;1.03;;;15.50;87.80;;;;;;2048183;28;20207;-67
2021/08/20 00:10:16;;;;;;;1.00;0.90;;;15.50;87.70;;;;;;2049078;29;20176;-67
2021/08/20 00:11:17;;;;;;;4.93;1.30;;;15.50;87.70;;;;;;2049028;28;20833;-67
2021/08/20 00:12:17;;;;;;;1.67;1.30;;;15.50;87.60;;;;;;2049005;29;20650;-67
2021/08/20 00:13:18;;;;;;;1.17;0.83;;;15.50;87.60;;;;;;2048929;28;20317;-68
2021/08/20 00:14:19;;;;;;;1.97;1.03;;;15.60;87.50;;;;;;2049087;28;20562;-67
2021/08/20 00:15:20;;;;;;;1.47;1.20;;;15.50;87.50;;;;;;2048984;28;20184;-67
2021/08/20 00:16:21;;;;;;;1.30;1.20;;;15.60;87.50;;;;;;2049018;29;20783;-67
2021/08/20 00:17:23;;;;;;;1.30;1.17;;;15.50;87.30;;;;;;2049040;28;20175;-72
2021/08/20 00:18:25;;;;;;;1.35;0.80;;;15.60;87.30;;;;;;2048476;29;20275;-68
2021/08/20 00:19:26;;;;;;;1.58;1.20;;;15.60;87.30;;;;;;2048123;28;20206;-69
2021/08/20 00:20:26;;;;;;;0.80;0.80;;;15.60;87.40;;;;;;2049057;28;20172;-67
2021/08/20 00:21:29;;;;;;;1.13;1.03;;;15.60;87.30;;;;;;2048987;28;20180;-67
2021/08/20 00:22:29;;;;;;;1.48;1.20;;;15.50;87.60;;;;;;2049612;29;20264;-68
2021/08/20 00:23:30;;;;;;;1.63;1.10;;;15.50;87.60;;;;;;2050025;29;20646;-66
2021/08/20 00:24:31;;;;;;;2.27;1.40;;;15.60;87.60;;;;;;2050591;28;20183;-67
2021/08/20 00:25:32;;;;;;;1.30;1.20;;;15.50;87.60;;;;;;2041998;29;20268;-68
2021/08/20 00:26:33;;;;;;;1.13;1.00;;;15.50;87.50;;;;;;2042098;29;20648;-67
2021/08/20 00:27:34;;;;;;;1.20;1.10;;;15.60;87.60;;;;;;2050012;29;20182;-68
2021/08/20 00:28:35;;;;;;;1.40;0.90;;;15.60;87.60;;;;;;2041953;29;20223;-67
2021/08/20 00:29:35;;;;;;;1.77;1.10;;;15.60;87.40;;;;;;2041807;29;20223;-68
2021/08/20 00:30:36;;;;;;;0.80;0.80;;;15.60;87.00;;;;;;2049909;29;20258;-68
2021/08/20 00:31:37;;;;;;;2.17;0.90;;;15.60;87.40;;;;;;2049960;29;20187;-68
2021/08/20 00:32:38;;;;;;;1.17;0.80;;;15.50;88.00;;;;;;2049914;29;20193;-67
2021/08/20 00:33:38;;;;;;;1.50;1.37;;;15.50;88.10;;;;;;2050489;28;20582;-67
2021/08/20 00:34:39;;;;;;;3.40;1.20;;;15.50;88.00;;;;;;2050553;28;20470;-67
2021/08/20 00:35:40;;;;;;;1.37;1.03;;;15.50;87.70;;;;;;2050502;29;20182;-68
2021/08/20 00:36:41;;;;;;;3.97;1.30;;;15.50;87.80;;;;;;2050438;28;20267;-68
2021/08/20 00:37:41;;;;;;;1.40;1.30;;;15.50;87.90;;;;;;2050532;28;20231;-66
2021/08/20 00:38:42;;;;;;;1.80;1.03;;;15.50;87.90;;;;;;2050424;28;20183;-68
2021/08/20 00:39:43;;;;;;;1.37;0.80;;;15.60;87.50;;;;;;2049573;29;20264;-68
2021/08/20 00:40:43;;;;;;;1.17;1.07;;;15.60;87.30;;;;;;2049947;28;20192;-68
2021/08/20 00:41:44;;;;;;;2.37;1.40;;;15.60;87.30;;;;;;2050500;28;20207;-68
2021/08/20 00:42:47;;;;;;;1.90;1.40;;;15.50;87.60;;;;;;2050393;29;20222;-67
2021/08/20 00:43:48;;;;;;;1.17;0.98;;;15.50;87.70;;;;;;2050497;28;20220;-67
2021/08/20 00:44:50;;;;;;;3.75;1.08;;;15.50;88.80;;;;;;2050407;28;20677;-67
2021/08/20 00:46:00;;;;;;;1.67;0.82;;;15.50;87.50;;;;;;2049839;29;20191;-68
2021/08/20 00:47:01;;;;;;;1.58;1.05;;;15.50;87.60;;;;;;2049882;29;20706;-68
2021/08/20 00:48:03;;;;;;;1.37;1.23;;;15.50;87.60;;;;;;2050393;28;20255;-67
2021/08/20 00:49:04;;;;;;;1.65;1.42;;;15.50;87.60;;;;;;2049389;28;20454;-67
2021/08/20 00:50:06;;;;;;;1.37;1.10;;;15.50;87.50;;;;;;2049811;29;20211;-67
2021/08/20 00:51:23;;;;;;;3.47;1.20;;;15.50;87.40;;;;;;2050218;28;20554;-68
2021/08/20 00:52:24;;;;;;;3.30;1.15;;;15.50;87.40;;;;;;2050446;28;20549;-67
2021/08/20 00:53:25;;;;;;;3.40;1.35;;;15.50;87.20;;;;;;2050237;28;20214;-67
2021/08/20 00:54:27;;;;;;;1.40;0.90;;;15.50;87.20;;;;;;2050368;29;20267;-67
2021/08/20 00:55:27;;;;;;;1.05;0.95;;;15.50;87.20;;;;;;2050288;28;20234;-67
2021/08/20 00:56:28;;;;;;;1.20;1.07;;;15.60;87.30;;;;;;2049652;29;20276;-67
2021/08/20 00:57:30;;;;;;;1.40;1.20;;;15.60;87.30;;;;;;2042131;29;20183;-67
2021/08/20 00:58:33;;;;;;;0.98;0.90;;;15.50;87.40;;;;;;2051769;28;20486;-68
2021/08/20 00:59:34;;;;;;;0.95;0.82;;;15.60;87.50;;;;;;2050001;28;20204;-66
2021/08/20 01:00:39;;;;;;;1.30;0.90;;;15.50;87.40;;;;;;2049768;29;20733;-66
2021/08/20 01:01:41;;;;;;;2.13;1.20;;;15.50;87.70;;;;;;2042384;29;20204;-67
2021/08/20 01:02:41;;;;;;;1.20;0.90;;;15.50;87.80;;;;;;2049797;29;20491;-68
2021/08/20 01:03:43;;;;;;;2.03;0.90;;;15.60;87.60;;;;;;2049649;29;20286;-66
2021/08/20 01:04:43;;;;;;;1.33;0.93;;;15.60;87.60;;;;;;2049686;29;20194;-68
2021/08/20 01:05:44;;;;;;;2.00;1.20;;;15.50;87.80;;;;;;2050220;28;20195;-67
2021/08/20 01:06:45;;;;;;;1.73;1.30;;;15.60;87.70;;;;;;2049677;29;20172;-68
2021/08/20 01:07:47;;;;;;;1.17;1.00;;;15.50;87.60;;;;;;2049662;29;20692;-67
2021/08/20 01:08:47;;;;;;;1.80;1.17;;;15.50;87.80;;;;;;2049404;28;20235;-68
2021/08/20 01:09:48;;;;;;;1.90;1.20;;;15.50;87.90;;;;;;2041584;29;20180;-66
2021/08/20 01:10:55;;;;;;;4.67;1.17;;;15.50;88.00;;;;;;2049658;29;20214;-67
2021/08/20 01:11:56;;;;;;;1.40;1.00;;;15.50;88.50;;;;;;2049589;29;20183;-67
2021/08/20 01:12:56;;;;;;;1.30;1.20;;;15.40;88.70;;;;;;2049620;29;20906;-67
2021/08/20 01:13:57;;;;;;;1.63;1.40;;;15.40;88.60;;;;;;2050141;29;20180;-67
2021/08/20 01:14:58;;;;;;;1.63;1.43;;;15.40;88.40;;;;;;2050239;28;20693;-67
2021/08/20 01:16:00;;;;;;;1.13;1.00;;;15.40;88.20;;;;;;2049452;29;20184;-67
2021/08/20 01:17:05;;;;;;;1.77;1.30;;;15.50;88.30;;;;;;2041896;29;20232;-66
2021/08/20 01:18:06;;;;;;;1.73;1.10;;;15.40;88.10;;;;;;2049606;29;20168;-66
2021/08/20 01:19:07;;;;;;;4.47;1.30;;;15.50;88.20;;;;;;2049886;28;20451;-67
2021/08/20 01:20:12;;;;;;;1.37;1.03;;;15.50;88.00;;;;;;2050080;29;20179;-68
2021/08/20 01:21:20;;;;;;;1.70;1.10;;;15.50;87.70;;;;;;2050170;28;20175;-68
2021/08/20 01:22:20;;;;;;;1.20;1.10;;;15.50;87.60;;;;;;2050110;28;20187;-66
2021/08/20 01:23:25;;;;;;;1.40;0.90;;;15.50;87.70;;;;;;2050351;28;20187;-68
2021/08/20 01:24:27;;;;;;;1.25;1.10;;;15.50;88.00;;;;;;2049528;29;20175;-68
2021/08/20 01:25:28;;;;;;;0.87;0.87;;;15.40;88.30;;;;;;2049606;29;20188;-68
2021/08/20 01:26:33;;;;;;;3.13;1.47;;;15.40;88.30;;;;;;2049451;29;20934;-68
2021/08/20 01:27:35;;;;;;;1.50;1.20;;;15.40;88.20;;;;;;2049568;29;20241;-66
2021/08/20 01:28:36;;;;;;;1.15;1.00;;;15.40;88.20;;;;;;2049996;29;20180;-68
2021/08/20 01:29:37;;;;;;;1.10;0.90;;;15.50;88.30;;;;;;2049857;28;20276;-66
2021/08/20 01:30:38;;;;;;;2.78;1.15;;;15.40;88.50;;;;;;2050176;28;20176;-67
2021/08/20 01:31:39;;;;;;;1.10;0.90;;;15.40;88.80;;;;;;2049531;29;20191;-66
2021/08/20 01:32:40;;;;;;;3.67;1.10;;;15.40;88.70;;;;;;2049217;28;20187;-66
2021/08/20 01:33:41;;;;;;;1.50;1.20;;;15.40;88.50;;;;;;2041327;29;20714;-68
2021/08/20 01:34:42;;;;;;;4.82;1.38;;;15.50;88.20;;;;;;2041591;29;20215;-68
2021/08/20 01:35:42;;;;;;;1.47;1.30;;;15.40;88.10;;;;;;2049483;29;20202;-68
2021/08/20 01:36:43;;;;;;;1.20;1.10;;;15.40;88.10;;;;;;2050151;28;20184;-67
2021/08/20 01:37:44;;;;;;;1.17;0.83;;;15.40;88.30;;;;;;2050081;28;20180;-69
2021/08/20 01:38:48;;;;;;;0.90;0.90;;;15.50;88.30;;;;;;2049876;28;20180;-68
2021/08/20 01:39:49;;;;;;;1.00;0.90;;;15.50;88.30;;;;;;2049354;29;20647;-68
2021/08/20 01:40:50;;;;;;;3.00;0.90;;;15.50;88.30;;;;;;2049386;29;20419;-67
2021/08/20 01:41:51;;;;;;;1.05;0.98;;;15.40;88.50;;;;;;2049443;29;20678;-68
2021/08/20 01:42:52;;;;;;;0.97;0.77;;;15.40;88.30;;;;;;2041466;29;20227;-67
2021/08/20 01:43:54;;;;;;;1.00;0.90;;;15.40;88.30;;;;;;2049444;29;20188;-68
2021/08/20 01:44:54;;;;;;;1.37;1.10;;;15.50;88.00;;;;;;2049362;29;20191;-68
2021/08/20 01:45:55;;;;;;;1.83;1.20;;;15.50;87.80;;;;;;2049426;29;21014;-68
2021/08/20 01:46:56;;;;;;;3.57;1.40;;;15.40;87.90;;;;;;2049905;28;20262;-66
2021/08/20 01:47:56;;;;;;;0.93;0.80;;;15.40;87.80;;;;;;2049385;29;20273;-66
2021/08/20 01:48:59;;;;;;;1.67;1.13;;;15.50;88.10;;;;;;2048990;28;20180;-67
2021/08/20 01:50:00;;;;;;;1.87;1.17;;;15.40;88.20;;;;;;2049309;29;20184;-68
2021/08/20 01:51:01;;;;;;;1.30;1.10;;;15.50;88.40;;;;;;2049295;29;20506;-67
2021/08/20 01:52:02;;;;;;;1.00;1.00;;;15.40;88.20;;;;;;2049950;28;20188;-67
2021/08/20 01:53:03;;;;;;;2.83;1.30;;;15.40;88.50;;;;;;2049912;28;20267;-68
2021/08/20 01:54:04;;;;;;;1.42;1.05;;;15.40;88.30;;;;;;2049870;28;20179;-66
2021/08/20 01:55:08;;;;;;;1.70;0.93;;;15.50;88.10;;;;;;2050053;28;20214;-68
2021/08/20 01:56:18;;;;;;;2.92;1.67;;;15.40;88.00;;;;;;2049831;28;20190;-68
2021/08/20 01:57:19;;;;;;;2.00;1.13;;;15.40;88.10;;;;;;2049968;28;20187;-68
2021/08/20 01:58:20;;;;;;;1.03;0.93;;;15.50;88.30;;;;;;2049925;28;20211;-68
2021/08/20 01:59:20;;;;;;;2.57;1.40;;;15.40;88.30;;;;;;2049594;28;20682;-68
2021/08/20 02:00:21;;;;;;;2.80;1.20;;;15.50;88.30;;;;;;2049842;28;20547;-68
2021/08/20 02:01:23;;;;;;;1.00;0.93;;;15.40;88.40;;;;;;2049782;28;20184;-67
2021/08/20 02:02:24;;;;;;;0.95;0.85;;;15.40;88.60;;;;;;2049818;28;20172;-66
2021/08/20 02:03:27;;;;;;;1.50;0.80;;;15.40;88.70;;;;;;2049914;28;20199;-66
2021/08/20 02:04:28;;;;;;;1.27;1.00;;;15.40;88.70;;;;;;2048540;28;20191;-66
2021/08/20 02:05:29;;;;;;;0.97;0.97;;;15.30;88.60;;;;;;2049676;29;20439;-68
2021/08/20 02:06:33;;;;;;;1.17;1.07;;;15.40;88.80;;;;;;2048962;29;20212;-66
2021/08/20 02:07:36;;;;;;;5.53;1.40;;;15.40;88.60;;;;;;2049268;29;20495;-67
2021/08/20 02:08:37;;;;;;;1.40;1.27;;;15.40;88.50;;;;;;2049763;28;20430;-69
2021/08/20 02:09:38;;;;;;;3.55;1.10;;;15.40;88.50;;;;;;2048890;28;20207;-67
2021/08/20 02:10:39;;;;;;;1.37;0.93;;;15.40;88.50;;;;;;2049156;29;20190;-68
2021/08/20 02:11:40;;;;;;;1.37;1.27;;;15.40;88.40;;;;;;2049810;28;20187;-67
2021/08/20 02:12:41;;;;;;;1.42;1.33;;;15.40;88.50;;;;;;2049751;28;20226;-66
2021/08/20 02:13:42;;;;;;;1.67;1.10;;;15.40;88.40;;;;;;2049727;29;20667;-67
2021/08/20 02:14:43;;;;;;;1.17;0.90;;;15.40;88.50;;;;;;2049676;28;20647;-68
2021/08/20 02:15:43;;;;;;;2.20;1.33;;;15.40;88.50;;;;;;2049201;29;20190;-66
2021/08/20 02:16:44;;;;;;;1.37;1.27;;;15.40;88.50;;;;;;2041199;29;20267;-66
2021/08/20 02:17:45;;;;;;;1.23;0.87;;;15.40;88.70;;;;;;2049206;29;20183;-66
2021/08/20 02:18:45;;;;;;;1.33;1.00;;;15.40;88.60;;;;;;2049542;28;20271;-69
2021/08/20 02:19:46;;;;;;;1.80;1.13;;;15.40;88.60;;;;;;2049495;28;20180;-68
2021/08/20 02:20:47;;;;;;;1.40;1.10;;;15.40;88.60;;;;;;2049092;29;20175;-66
2021/08/20 02:21:48;;;;;;;1.17;0.80;;;15.40;88.60;;;;;;2041219;29;20181;-67
2021/08/20 02:22:48;;;;;;;1.60;1.10;;;15.40;88.60;;;;;;2049085;29;20183;-67
2021/08/20 02:23:49;;;;;;;1.10;1.00;;;15.40;88.60;;;;;;2049733;28;20631;-67
2021/08/20 02:24:54;;;;;;;1.20;1.10;;;15.40;88.70;;;;;;2049655;28;20191;-67
2021/08/20 02:25:54;;;;;;;1.88;0.95;;;15.40;89.00;;;;;;2049730;28;20573;-66
2021/08/20 02:26:55;;;;;;;1.57;1.20;;;15.30;89.00;;;;;;2049652;28;20184;-66
2021/08/20 02:27:56;;;;;;;1.37;1.10;;;15.30;89.10;;;;;;2049700;28;20182;-68
2021/08/20 02:28:56;;;;;;;1.00;0.90;;;15.30;89.30;;;;;;2049298;28;20178;-67
2021/08/20 02:29:57;;;;;;;1.40;0.90;;;15.30;89.10;;;;;;2049697;28;20259;-66
2021/08/20 02:30:58;;;;;;;1.50;1.00;;;15.30;89.00;;;;;;2049573;28;20183;-67
2021/08/20 02:31:59;;;;;;;2.70;1.10;;;15.30;88.80;;;;;;2049618;28;20211;-66
2021/08/20 02:33:00;;;;;;;1.10;1.00;;;15.30;88.90;;;;;;2049612;28;20454;-68
2021/08/20 02:34:00;;;;;;;1.30;1.20;;;15.30;88.80;;;;;;2048991;29;20270;-67
2021/08/20 02:35:01;;;;;;;2.13;1.00;;;15.20;88.40;;;;;;2049081;29;20307;-66
2021/08/20 02:36:04;;;;;;;1.17;1.07;;;15.30;88.60;;;;;;2049654;28;20215;-67
2021/08/20 02:37:05;;;;;;;1.03;1.00;;;15.20;88.50;;;;;;2049574;28;20665;-67
2021/08/20 02:38:06;;;;;;;1.73;1.10;;;15.30;88.40;;;;;;2049614;29;20424;-69
2021/08/20 02:39:06;;;;;;;1.47;1.27;;;15.30;88.50;;;;;;2049211;28;20670;-66
2021/08/20 02:40:08;;;;;;;1.60;1.23;;;15.20;88.40;;;;;;2049623;28;20195;-67
2021/08/20 02:41:09;;;;;;;1.83;1.50;;;15.20;88.50;;;;;;2048873;29;20184;-67
2021/08/20 02:42:09;;;;;;;2.67;1.30;;;15.20;88.60;;;;;;2048968;29;20423;-67
2021/08/20 02:43:10;;;;;;;2.90;1.03;;;15.20;88.90;;;;;;2049568;28;20190;-68
2021/08/20 02:44:11;;;;;;;0.90;0.90;;;15.10;88.80;;;;;;2049434;28;20191;-68
2021/08/20 02:45:12;;;;;;;1.57;1.10;;;15.10;88.80;;;;;;2048940;28;20179;-69
2021/08/20 02:46:12;;;;;;;1.20;1.10;;;15.10;88.80;;;;;;2049621;28;20206;-66
2021/08/20 02:47:13;;;;;;;1.00;0.90;;;15.10;88.80;;;;;;2049468;28;20431;-67
2021/08/20 02:48:14;;;;;;;3.27;0.93;;;15.10;89.00;;;;;;2049464;28;20184;-69
2021/08/20 02:49:14;;;;;;;1.43;1.03;;;15.00;88.80;;;;;;2049175;28;20204;-67
2021/08/20 02:50:15;;;;;;;1.40;1.00;;;15.00;88.90;;;;;;2048888;29;20183;-67
2021/08/20 02:51:16;;;;;;;1.60;1.13;;;15.00;89.00;;;;;;2048908;29;20191;-68
2021/08/20 02:52:17;;;;;;;1.93;1.40;;;15.00;89.30;;;;;;2049495;28;20176;-67
2021/08/20 02:53:18;;;;;;;2.10;1.33;;;15.00;89.20;;;;;;2049353;28;20235;-67
2021/08/20 02:54:18;;;;;;;1.07;0.97;;;15.00;89.40;;;;;;2049404;28;20187;-68
2021/08/20 02:55:19;;;;;;;2.50;1.13;;;14.90;89.40;;;;;;2049606;28;20187;-67
2021/08/20 02:56:20;;;;;;;1.83;1.40;;;14.90;89.50;;;;;;2049424;28;20184;-67
2021/08/20 02:57:27;;;;;;;1.10;1.00;;;14.90;89.50;;;;;;2048911;29;20184;-68
2021/08/20 02:58:28;;;;;;;1.48;1.15;;;14.80;89.60;;;;;;2041668;29;20184;-67
2021/08/20 02:59:29;;;;;;;1.77;1.40;;;14.80;90.00;;;;;;2048636;28;20740;-67
2021/08/20 03:00:29;;;;;;;1.10;1.00;;;14.80;90.10;;;;;;2049406;28;20672;-67
2021/08/20 03:01:30;;;;;;;1.20;0.97;;;14.70;90.20;;;;;;2049303;29;20183;-66
2021/08/20 03:02:31;;;;;;;1.43;0.77;;;14.70;90.30;;;;;;2048766;29;20176;-67
2021/08/20 03:03:32;;;;;;;1.33;1.20;;;14.70;90.30;;;;;;2048764;29;20210;-67
2021/08/20 03:04:33;;;;;;;1.53;1.30;;;14.60;90.30;;;;;;2053824;28;20662;-68
2021/08/20 03:05:34;;;;;;;1.10;0.80;;;14.60;90.30;;;;;;2057387;28;20458;-68
2021/08/20 03:06:34;;;;;;;0.93;0.83;;;14.60;90.30;;;;;;2057337;28;20183;-67
2021/08/20 03:07:35;;;;;;;1.57;1.20;;;14.60;90.40;;;;;;2056716;28;20692;-66
2021/08/20 03:08:39;;;;;;;1.30;1.20;;;14.50;90.40;;;;;;2048671;29;20247;-67
2021/08/20 03:09:40;;;;;;;1.73;1.27;;;14.50;90.40;;;;;;2056511;28;20209;-67
2021/08/20 03:10:42;;;;;;;1.10;0.97;;;14.50;90.50;;;;;;2057300;28;20187;-67
2021/08/20 03:11:42;;;;;;;2.00;1.13;;;14.50;90.50;;;;;;2057330;28;20240;-67
2021/08/20 03:12:43;;;;;;;2.00;1.23;;;14.40;90.50;;;;;;2057313;28;20190;-68
2021/08/20 03:13:44;;;;;;;4.97;1.43;;;14.40;90.60;;;;;;2057282;28;20211;-66
2021/08/20 03:14:45;;;;;;;1.10;1.00;;;14.40;90.60;;;;;;2056654;28;20183;-68
2021/08/20 03:15:45;;;;;;;0.80;0.80;;;14.40;90.60;;;;;;2056731;28;20182;-67
2021/08/20 03:16:46;;;;;;;0.90;0.90;;;14.30;90.70;;;;;;2057270;28;20206;-66
2021/08/20 03:17:47;;;;;;;1.10;1.00;;;14.30;90.80;;;;;;2057310;28;20183;-68
2021/08/20 03:18:47;;;;;;;2.03;1.27;;;14.30;90.90;;;;;;2056360;28;20175;-70
2021/08/20 03:19:48;;;;;;;2.00;1.10;;;14.20;91.00;;;;;;2056587;28;20167;-66
2021/08/20 03:20:49;;;;;;;5.57;1.30;;;14.20;91.10;;;;;;2056580;28;20709;-66
2021/08/20 03:21:49;;;;;;;1.13;1.03;;;14.20;91.10;;;;;;2056676;28;20262;-67
2021/08/20 03:22:50;;;;;;;1.30;1.20;;;14.20;91.20;;;;;;2057250;28;20258;-66
2021/08/20 03:23:51;;;;;;;1.67;1.43;;;14.20;91.30;;;;;;2057325;28;20646;-68
2021/08/20 03:24:51;;;;;;;1.20;1.10;;;14.10;91.30;;;;;;2056612;28;20251;-68
2021/08/20 03:25:52;;;;;;;1.10;1.00;;;14.20;91.30;;;;;;2056715;28;20597;-66
2021/08/20 03:26:53;;;;;;;1.57;1.37;;;14.10;91.20;;;;;;2057250;28;20644;-67
2021/08/20 03:27:53;;;;;;;1.13;1.03;;;14.10;91.20;;;;;;2056574;28;20207;-66
2021/08/20 03:28:54;;;;;;;1.33;1.20;;;14.10;91.20;;;;;;2056299;28;20199;-66
2021/08/20 03:29:55;;;;;;;1.50;1.37;;;14.10;91.30;;;;;;2056527;28;20232;-67
2021/08/20 03:30:55;;;;;;;1.33;1.17;;;14.00;91.30;;;;;;2056626;28;20205;-68
2021/08/20 03:31:56;;;;;;;1.13;0.90;;;14.00;91.30;;;;;;2057250;28;20286;-66
2021/08/20 03:32:57;;;;;;;1.33;1.17;;;14.00;91.30;;;;;;2057246;28;20284;-66
2021/08/20 03:33:58;;;;;;;1.73;1.17;;;14.00;91.30;;;;;;2057135;28;20294;-67
2021/08/20 03:34:58;;;;;;;5.50;0.90;;;14.00;91.30;;;;;;2057281;28;20636;-67
2021/08/20 03:35:59;;;;;;;1.30;1.20;;;14.00;91.40;;;;;;2057230;28;20179;-67
2021/08/20 03:37:00;;;;;;;1.17;0.80;;;14.00;91.40;;;;;;2057218;28;20660;-68
2021/08/20 03:38:00;;;;;;;2.07;1.30;;;14.00;91.50;;;;;;2057209;28;20182;-67
2021/08/20 03:39:01;;;;;;;0.87;0.87;;;14.00;91.50;;;;;;2056309;28;20175;-69
2021/08/20 03:40:02;;;;;;;3.30;1.05;;;14.00;91.50;;;;;;2048655;28;20176;-67
2021/08/20 03:41:03;;;;;;;1.20;1.10;;;14.00;91.60;;;;;;2056662;28;20190;-67
2021/08/20 03:42:04;;;;;;;1.30;1.20;;;14.00;91.60;;;;;;2057127;28;20944;-67
2021/08/20 03:43:05;;;;;;;2.13;1.23;;;14.00;91.60;;;;;;2056602;28;20191;-67
2021/08/20 03:44:05;;;;;;;1.20;1.10;;;14.00;91.70;;;;;;2056490;28;20246;-68
2021/08/20 03:45:07;;;;;;;1.33;0.90;;;14.00;91.70;;;;;;2056528;28;20179;-67
2021/08/20 03:46:09;;;;;;;1.30;1.05;;;14.00;91.70;;;;;;2056466;28;20646;-68
2021/08/20 03:47:10;;;;;;;1.38;1.25;;;14.00;91.80;;;;;;2057118;28;20223;-68
2021/08/20 03:48:11;;;;;;;1.20;1.10;;;14.00;91.70;;;;;;2056565;28;20186;-68
2021/08/20 03:49:12;;;;;;;1.47;1.20;;;14.00;91.80;;;;;;2048252;28;20192;-69
2021/08/20 03:50:12;;;;;;;1.83;1.50;;;14.00;91.80;;;;;;2056537;28;20186;-67
2021/08/20 03:51:13;;;;;;;1.33;1.13;;;14.00;91.70;;;;;;2057164;28;20179;-67
2021/08/20 03:52:14;;;;;;;1.37;1.00;;;14.00;91.70;;;;;;2057127;28;20689;-68
2021/08/20 03:53:15;;;;;;;0.97;0.93;;;14.00;91.70;;;;;;2056994;28;20476;-66
2021/08/20 03:54:15;;;;;;;1.37;1.23;;;13.90;91.80;;;;;;2057120;28;20211;-67
2021/08/20 03:55:16;;;;;;;1.13;0.87;;;13.90;91.80;;;;;;2057171;28;20181;-67
2021/08/20 03:56:17;;;;;;;1.07;0.97;;;13.90;91.70;;;;;;2057986;28;20183;-66
2021/08/20 03:57:17;;;;;;;0.70;0.70;;;13.90;91.80;;;;;;2058834;28;20175;-67
2021/08/20 03:58:18;;;;;;;1.50;1.40;;;13.90;91.60;;;;;;2058746;28;20179;-68
2021/08/20 03:59:19;;;;;;;4.50;1.00;;;13.90;91.60;;;;;;2058542;28;20785;-68
2021/08/20 04:00:19;;;;;;;1.37;1.03;;;13.90;91.50;;;;;;2058743;28;20210;-67
2021/08/20 04:01:20;;;;;;;1.33;1.20;;;13.90;91.60;;;;;;2058579;28;20175;-67
2021/08/20 04:02:21;;;;;;;1.23;1.00;;;13.90;91.60;;;;;;2058727;28;20193;-66
2021/08/20 04:03:23;;;;;;;1.37;1.23;;;13.80;91.60;;;;;;2058836;28;20190;-67
2021/08/20 04:04:24;;;;;;;1.00;0.90;;;13.80;91.60;;;;;;2058006;28;20269;-68
2021/08/20 04:05:25;;;;;;;1.40;1.20;;;13.90;91.60;;;;;;2058197;28;20181;-67
2021/08/20 04:06:26;;;;;;;0.90;0.90;;;13.80;91.50;;;;;;2058644;28;20183;-68
2021/08/20 04:07:27;;;;;;;1.13;0.80;;;13.80;92.00;;;;;;2058824;28;20656;-66
2021/08/20 04:08:27;;;;;;;4.07;1.10;;;13.80;91.50;;;;;;2058784;28;20186;-66
2021/08/20 04:09:28;;;;;;;1.40;1.20;;;13.80;91.50;;;;;;2057771;28;20213;-67
2021/08/20 04:10:29;;;;;;;2.03;1.02;;;13.80;91.50;;;;;;2058172;28;20179;-67
2021/08/20 04:11:30;;;;;;;1.20;1.10;;;13.80;91.50;;;;;;2058703;28;20185;-66
2021/08/20 04:12:30;;;;;;;2.40;0.90;;;13.80;91.40;;;;;;2058714;28;20625;-66
2021/08/20 04:13:31;;;;;;;1.03;0.93;;;13.80;91.40;;;;;;2058635;28;20210;-66
2021/08/20 04:14:32;;;;;;;1.83;1.20;;;13.80;91.50;;;;;;2058066;28;20278;-67
2021/08/20 04:15:32;;;;;;;2.07;0.90;;;13.80;91.40;;;;;;2058108;28;20209;-69
2021/08/20 04:16:34;;;;;;;1.60;1.23;;;13.80;91.50;;;;;;2058689;28;20556;-66
2021/08/20 04:17:35;;;;;;;1.52;1.02;;;13.80;91.40;;;;;;2058065;28;20185;-68
2021/08/20 04:18:39;;;;;;;1.20;1.07;;;13.90;91.50;;;;;;2058092;28;20227;-66
2021/08/20 04:19:40;;;;;;;1.35;1.25;;;13.90;91.50;;;;;;2057700;28;20199;-66
2021/08/20 04:20:42;;;;;;;2.20;1.33;;;13.90;91.40;;;;;;2050149;29;20175;-68
2021/08/20 04:21:44;;;;;;;1.10;1.02;;;13.90;91.40;;;;;;2058042;28;20218;-68
2021/08/20 04:22:44;;;;;;;0.93;0.82;;;13.90;91.30;;;;;;2058699;28;20266;-68
2021/08/20 04:23:45;;;;;;;0.70;0.70;;;13.90;91.30;;;;;;2057999;28;20175;-67
2021/08/20 04:24:46;;;;;;;0.90;0.90;;;13.90;91.30;;;;;;2050116;28;20184;-66
2021/08/20 04:25:47;;;;;;;1.70;1.47;;;13.90;91.20;;;;;;2058028;28;20261;-68
2021/08/20 04:26:47;;;;;;;2.47;1.27;;;13.90;91.20;;;;;;2058690;28;20225;-67
2021/08/20 04:27:49;;;;;;;0.87;0.87;;;13.90;91.10;;;;;;2057996;28;20184;-67
2021/08/20 04:28:51;;;;;;;1.35;0.93;;;13.90;91.10;;;;;;2049843;28;20681;-67
2021/08/20 04:29:52;;;;;;;1.48;1.38;;;13.90;91.00;;;;;;2050133;28;20263;-67
2021/08/20 04:30:52;;;;;;;1.83;1.20;;;13.90;91.10;;;;;;2058002;28;20182;-67
2021/08/20 04:31:56;;;;;;;1.00;0.90;;;13.90;91.00;;;;;;2058574;28;20186;-66
2021/08/20 04:32:58;;;;;;;2.03;1.30;;;13.90;90.90;;;;;;2058000;28;20179;-68
2021/08/20 04:33:59;;;;;;;1.50;1.20;;;13.90;91.00;;;;;;2057886;28;20851;-68
2021/08/20 04:34:59;;;;;;;1.37;1.27;;;13.90;91.00;;;;;;2058634;28;20287;-68
2021/08/20 04:36:00;;;;;;;0.87;0.87;;;13.90;90.90;;;;;;2058539;28;20266;-66
2021/08/20 04:37:00;;;;;;;1.20;1.10;;;13.90;90.80;;;;;;2058603;28;20272;-66
2021/08/20 04:38:01;;;;;;;3.33;1.40;;;13.90;90.90;;;;;;2058544;28;20218;-67
2021/08/20 04:39:03;;;;;;;1.00;0.90;;;13.90;90.90;;;;;;2058245;28;20175;-67
2021/08/20 04:40:06;;;;;;;5.38;1.13;;;13.90;90.90;;;;;;2058497;28;20419;-68
2021/08/20 04:41:07;;;;;;;1.55;1.33;;;13.90;90.90;;;;;;2057905;28;20218;-67
2021/08/20 04:42:08;;;;;;;2.10;0.98;;;13.90;90.90;;;;;;2057766;28;20207;-67
2021/08/20 04:43:08;;;;;;;4.80;1.10;;;14.00;90.90;;;;;;2057846;28;20183;-67
2021/08/20 04:44:09;;;;;;;1.70;1.23;;;14.00;90.90;;;;;;2057932;28;20187;-68
2021/08/20 04:45:12;;;;;;;1.27;1.07;;;14.00;90.80;;;;;;2058634;28;20258;-67
2021/08/20 04:46:13;;;;;;;1.50;0.95;;;14.00;90.70;;;;;;2057793;28;20717;-68
2021/08/20 04:47:13;;;;;;;1.07;0.97;;;14.00;90.60;;;;;;2057959;28;20179;-67
2021/08/20 04:48:14;;;;;;;1.13;0.90;;;14.00;90.50;;;;;;2058443;28;20180;-67
2021/08/20 04:49:15;;;;;;;4.23;1.33;;;14.00;90.50;;;;;;2058184;28;20571;-66
2021/08/20 04:50:16;;;;;;;2.13;1.00;;;14.00;90.50;;;;;;2057870;28;20171;-68
2021/08/20 04:51:16;;;;;;;1.50;1.20;;;13.90;90.50;;;;;;2057818;28;20682;-66
2021/08/20 04:52:19;;;;;;;1.50;1.20;;;13.90;91.10;;;;;;2058367;28;20183;-68
2021/08/20 04:53:20;;;;;;;2.55;1.30;;;13.90;90.70;;;;;;2058353;28;20229;-67
2021/08/20 04:54:21;;;;;;;0.90;0.90;;;13.90;90.70;;;;;;2058325;28;20629;-67
2021/08/20 04:55:21;;;;;;;1.20;1.10;;;13.90;90.70;;;;;;2058450;28;20199;-68
2021/08/20 04:56:22;;;;;;;2.33;1.20;;;14.00;90.70;;;;;;2051391;28;20227;-67
2021/08/20 04:57:23;;;;;;;0.93;0.93;;;14.00;90.70;;;;;;2043262;28;20275;-67
2021/08/20 04:58:25;;;;;;;0.73;0.73;;;14.00;90.60;;;;;;2053019;28;20705;-69
2021/08/20 04:59:26;;;;;;;1.50;0.80;;;14.00;90.60;;;;;;2056062;28;20285;-69
2021/08/20 05:00:26;;;;;;;1.23;1.13;;;14.10;90.50;;;;;;2050848;28;20184;-67
2021/08/20 05:01:27;;;;;;;1.50;1.20;;;14.10;90.40;;;;;;2057264;28;20920;-67
2021/08/20 05:02:31;;;;;;;1.00;0.90;;;14.10;90.50;;;;;;2057784;28;20179;-67
2021/08/20 05:03:32;;;;;;;1.20;1.02;;;14.10;90.50;;;;;;2057665;28;20356;-69
2021/08/20 05:04:35;;;;;;;1.37;1.17;;;14.10;90.40;;;;;;2057817;28;20191;-66
2021/08/20 05:05:35;;;;;;;1.05;0.95;;;14.10;90.30;;;;;;2057645;28;20509;-69
2021/08/20 05:06:38;;;;;;;2.67;1.10;;;14.10;90.40;;;;;;2057693;28;20194;-68
2021/08/20 05:07:39;;;;;;;0.90;0.90;;;14.00;90.50;;;;;;2049312;28;20188;-67
2021/08/20 05:08:40;;;;;;;2.33;1.30;;;14.10;90.60;;;;;;2047932;29;20577;-68
2021/08/20 05:09:41;;;;;;;0.85;0.85;;;14.10;90.20;;;;;;2050853;28;20207;-67
2021/08/20 05:10:41;;;;;;;1.53;1.00;;;14.00;90.10;;;;;;2049760;29;20194;-67
2021/08/20 05:11:42;;;;;;;2.47;1.27;;;14.00;90.10;;;;;;2049634;29;20187;-68
2021/08/20 05:12:43;;;;;;;1.03;0.93;;;14.10;90.00;;;;;;2050376;28;20207;-66
2021/08/20 05:13:43;;;;;;;0.60;0.60;;;14.10;89.80;;;;;;2050103;28;20207;-66
2021/08/20 05:14:44;;;;;;;1.90;1.23;;;14.10;89.90;;;;;;2050291;28;20187;-68
2021/08/20 05:15:45;;;;;;;1.40;1.30;;;14.10;89.90;;;;;;2050200;28;20180;-67
2021/08/20 05:16:49;;;;;;;0.80;0.80;;;14.20;90.00;;;;;;2050260;29;20234;-67
2021/08/20 05:17:49;;;;;;;1.15;0.90;;;14.20;89.60;;;;;;2049565;29;20206;-67
2021/08/20 05:18:50;;;;;;;1.33;1.23;;;14.20;89.00;;;;;;2049051;28;20176;-69